sensor_id;sensor_type;location;lat;lon;timestamp;P1;durP1;ratioP1;P2;durP2;ratioP2
52992;SDS011;38875;52.216;21.040;2022-09-01T00:00:59;3.13;;;1.00;;
52992;SDS011;38875;52.216;21.040;2022-09-01T00:03:27;3.78;;;1.10;;
52992;SDS011;38875;52.216;21.040;2022-09-01T00:05:54;5.65;;;1.08;;
52992;SDS011;38875;52.216;21.040;2022-09-01T00:08:21;2.63;;;0.95;;
52992;SDS011;38875;52.216;21.040;2022-09-01T00:10:47;4.18;;;1.05;;
52992;SDS011;38875;52.216;21.040;2022-09-01T00:13:14;4.25;;;1.20;;
52992;SDS011;38875;52.216;21.040;2022-09-01T00:15:40;5.15;;;1.20;;
52992;SDS011;38875;52.216;21.040;2022-09-01T00:18:06;5.63;;;1.25;;
52992;SDS011;38875;52.216;21.040;2022-09-01T00:20:32;4.88;;;1.30;;
52992;SDS011;38875;52.216;21.040;2022-09-01T00:22:58;3.92;;;0.98;;
52992;SDS011;38875;52.216;21.040;2022-09-01T00:25:25;4.10;;;1.40;;
52992;SDS011;38875;52.216;21.040;2022-09-01T00:27:52;3.83;;;1.00;;
52992;SDS011;38875;52.216;21.040;2022-09-01T00:30:23;3.58;;;1.30;;
52992;SDS011;38875;52.216;21.040;2022-09-01T00:32:49;4.05;;;1.40;;
52992;SDS011;38875;52.216;21.040;2022-09-01T00:35:16;5.82;;;1.20;;
52992;SDS011;38875;52.216;21.040;2022-09-01T00:37:44;5.97;;;1.50;;
52992;SDS011;38875;52.216;21.040;2022-09-01T00:40:11;5.10;;;1.40;;
52992;SDS011;38875;52.216;21.040;2022-09-01T00:42:39;5.00;;;1.13;;
52992;SDS011;38875;52.216;21.040;2022-09-01T00:45:07;6.45;;;1.20;;
52992;SDS011;38875;52.216;21.040;2022-09-01T00:47:34;5.30;;;1.20;;
52992;SDS011;38875;52.216;21.040;2022-09-01T00:50:02;6.03;;;1.40;;
52992;SDS011;38875;52.216;21.040;2022-09-01T00:52:34;6.85;;;1.30;;
52992;SDS011;38875;52.216;21.040;2022-09-01T00:55:14;5.78;;;1.27;;
52992;SDS011;38875;52.216;21.040;2022-09-01T00:57:43;4.85;;;1.13;;
52992;SDS011;38875;52.216;21.040;2022-09-01T01:00:11;4.53;;;0.88;;
52992;SDS011;38875;52.216;21.040;2022-09-01T01:02:41;4.68;;;1.17;;
52992;SDS011;38875;52.216;21.040;2022-09-01T01:05:10;1.75;;;1.02;;
52992;SDS011;38875;52.216;21.040;2022-09-01T01:07:36;4.65;;;1.30;;
52992;SDS011;38875;52.216;21.040;2022-09-01T01:10:07;3.05;;;0.98;;
52992;SDS011;38875;52.216;21.040;2022-09-01T01:12:36;2.55;;;1.15;;
52992;SDS011;38875;52.216;21.040;2022-09-01T01:15:09;6.35;;;1.67;;
52992;SDS011;38875;52.216;21.040;2022-09-01T01:17:36;6.05;;;1.20;;
52992;SDS011;38875;52.216;21.040;2022-09-01T01:20:02;5.07;;;1.10;;
52992;SDS011;38875;52.216;21.040;2022-09-01T01:28:30;5.45;;;1.15;;
52992;SDS011;38875;52.216;21.040;2022-09-01T01:31:05;3.75;;;1.05;;
52992;SDS011;38875;52.216;21.040;2022-09-01T01:33:38;5.82;;;1.17;;
52992;SDS011;38875;52.216;21.040;2022-09-01T01:36:10;4.35;;;1.20;;
52992;SDS011;38875;52.216;21.040;2022-09-01T01:38:38;5.53;;;1.20;;
52992;SDS011;38875;52.216;21.040;2022-09-01T01:41:07;4.00;;;1.02;;
52992;SDS011;38875;52.216;21.040;2022-09-01T01:43:34;2.75;;;1.00;;
52992;SDS011;38875;52.216;21.040;2022-09-01T01:46:02;5.40;;;1.10;;
52992;SDS011;38875;52.216;21.040;2022-09-01T01:48:30;4.13;;;1.30;;
52992;SDS011;38875;52.216;21.040;2022-09-01T01:50:59;4.43;;;1.20;;
52992;SDS011;38875;52.216;21.040;2022-09-01T01:53:25;3.25;;;0.90;;
52992;SDS011;38875;52.216;21.040;2022-09-01T01:55:51;3.25;;;1.00;;
52992;SDS011;38875;52.216;21.040;2022-09-01T01:58:18;7.60;;;1.10;;
52992;SDS011;38875;52.216;21.040;2022-09-01T02:00:46;3.55;;;0.85;;
52992;SDS011;38875;52.216;21.040;2022-09-01T02:03:15;3.50;;;1.00;;
52992;SDS011;38875;52.216;21.040;2022-09-01T02:05:43;4.00;;;1.20;;
52992;SDS011;38875;52.216;21.040;2022-09-01T02:08:11;2.95;;;0.93;;
52992;SDS011;38875;52.216;21.040;2022-09-01T02:10:43;2.05;;;0.90;;
52992;SDS011;38875;52.216;21.040;2022-09-01T02:13:12;2.47;;;0.95;;
52992;SDS011;38875;52.216;21.040;2022-09-01T02:15:47;4.13;;;1.20;;
52992;SDS011;38875;52.216;21.040;2022-09-01T02:20:48;3.90;;;1.10;;
52992;SDS011;38875;52.216;21.040;2022-09-01T02:23:14;4.85;;;1.33;;
52992;SDS011;38875;52.216;21.040;2022-09-01T02:25:43;3.53;;;1.08;;
52992;SDS011;38875;52.216;21.040;2022-09-01T02:28:11;4.32;;;1.00;;
52992;SDS011;38875;52.216;21.040;2022-09-01T02:30:42;6.05;;;1.25;;
52992;SDS011;38875;52.216;21.040;2022-09-01T02:33:10;4.03;;;1.17;;
52992;SDS011;38875;52.216;21.040;2022-09-01T02:35:43;4.90;;;1.17;;
52992;SDS011;38875;52.216;21.040;2022-09-01T02:38:12;7.93;;;1.02;;
52992;SDS011;38875;52.216;21.040;2022-09-01T02:40:39;4.05;;;1.20;;
52992;SDS011;38875;52.216;21.040;2022-09-01T02:43:08;5.40;;;1.20;;
52992;SDS011;38875;52.216;21.040;2022-09-01T02:45:36;5.25;;;1.20;;
52992;SDS011;38875;52.216;21.040;2022-09-01T02:48:03;3.38;;;0.90;;
52992;SDS011;38875;52.216;21.040;2022-09-01T02:50:34;2.47;;;0.77;;
52992;SDS011;38875;52.216;21.040;2022-09-01T02:53:03;3.00;;;0.95;;
52992;SDS011;38875;52.216;21.040;2022-09-01T02:55:34;5.25;;;1.10;;
52992;SDS011;38875;52.216;21.040;2022-09-01T02:58:01;4.28;;;0.98;;
52992;SDS011;38875;52.216;21.040;2022-09-01T03:00:27;4.65;;;1.40;;
52992;SDS011;38875;52.216;21.040;2022-09-01T03:02:56;4.82;;;1.00;;
52992;SDS011;38875;52.216;21.040;2022-09-01T03:05:24;3.53;;;1.13;;
52992;SDS011;38875;52.216;21.040;2022-09-01T03:08:00;5.53;;;1.52;;
52992;SDS011;38875;52.216;21.040;2022-09-01T03:10:30;6.47;;;1.38;;
52992;SDS011;38875;52.216;21.040;2022-09-01T03:13:22;5.15;;;1.35;;
52992;SDS011;38875;52.216;21.040;2022-09-01T03:15:51;3.35;;;1.10;;
52992;SDS011;38875;52.216;21.040;2022-09-01T03:18:17;2.45;;;1.15;;
52992;SDS011;38875;52.216;21.040;2022-09-01T03:20:43;6.38;;;1.50;;
52992;SDS011;38875;52.216;21.040;2022-09-01T03:23:17;6.72;;;1.45;;
52992;SDS011;38875;52.216;21.040;2022-09-01T03:25:43;4.90;;;1.20;;
52992;SDS011;38875;52.216;21.040;2022-09-01T03:28:11;4.53;;;1.30;;
52992;SDS011;38875;52.216;21.040;2022-09-01T03:30:38;4.85;;;1.30;;
52992;SDS011;38875;52.216;21.040;2022-09-01T03:33:08;7.07;;;1.50;;
52992;SDS011;38875;52.216;21.040;2022-09-01T03:35:35;4.40;;;1.40;;
52992;SDS011;38875;52.216;21.040;2022-09-01T03:38:01;5.93;;;1.33;;
52992;SDS011;38875;52.216;21.040;2022-09-01T03:40:33;4.72;;;1.38;;
52992;SDS011;38875;52.216;21.040;2022-09-01T03:43:01;3.70;;;1.00;;
52992;SDS011;38875;52.216;21.040;2022-09-01T03:45:29;9.52;;;1.98;;
52992;SDS011;38875;52.216;21.040;2022-09-01T03:47:58;3.72;;;1.23;;
52992;SDS011;38875;52.216;21.040;2022-09-01T03:50:24;5.35;;;1.40;;
52992;SDS011;38875;52.216;21.040;2022-09-01T03:52:53;6.75;;;1.20;;
52992;SDS011;38875;52.216;21.040;2022-09-01T03:55:25;5.65;;;1.33;;
52992;SDS011;38875;52.216;21.040;2022-09-01T03:57:55;4.80;;;1.13;;
52992;SDS011;38875;52.216;21.040;2022-09-01T04:00:25;4.25;;;1.27;;
52992;SDS011;38875;52.216;21.040;2022-09-01T04:02:55;8.32;;;1.70;;
52992;SDS011;38875;52.216;21.040;2022-09-01T04:05:23;5.38;;;1.40;;
52992;SDS011;38875;52.216;21.040;2022-09-01T04:07:54;8.70;;;1.40;;
52992;SDS011;38875;52.216;21.040;2022-09-01T04:10:28;5.68;;;1.20;;
52992;SDS011;38875;52.216;21.040;2022-09-01T04:12:57;5.88;;;1.77;;
52992;SDS011;38875;52.216;21.040;2022-09-01T04:15:24;4.15;;;1.30;;
52992;SDS011;38875;52.216;21.040;2022-09-01T04:17:51;4.70;;;1.20;;
52992;SDS011;38875;52.216;21.040;2022-09-01T04:20:35;6.80;;;1.67;;
52992;SDS011;38875;52.216;21.040;2022-09-01T04:23:13;5.40;;;1.70;;
52992;SDS011;38875;52.216;21.040;2022-09-01T04:25:51;8.48;;;1.52;;
52992;SDS011;38875;52.216;21.040;2022-09-01T04:28:20;6.70;;;1.15;;
52992;SDS011;38875;52.216;21.040;2022-09-01T04:30:53;5.35;;;1.50;;
52992;SDS011;38875;52.216;21.040;2022-09-01T04:33:21;3.13;;;1.48;;
52992;SDS011;38875;52.216;21.040;2022-09-01T04:35:49;3.60;;;1.20;;
52992;SDS011;38875;52.216;21.040;2022-09-01T04:38:17;8.18;;;1.52;;
52992;SDS011;38875;52.216;21.040;2022-09-01T04:40:42;5.70;;;1.40;;
52992;SDS011;38875;52.216;21.040;2022-09-01T04:43:08;6.00;;;1.20;;
52992;SDS011;38875;52.216;21.040;2022-09-01T04:45:36;9.65;;;1.60;;
52992;SDS011;38875;52.216;21.040;2022-09-01T04:48:02;7.65;;;1.20;;
52992;SDS011;38875;52.216;21.040;2022-09-01T04:50:29;2.63;;;1.25;;
52992;SDS011;38875;52.216;21.040;2022-09-01T04:52:59;4.18;;;1.10;;
52992;SDS011;38875;52.216;21.040;2022-09-01T04:55:27;5.95;;;1.33;;
52992;SDS011;38875;52.216;21.040;2022-09-01T04:57:55;8.95;;;1.65;;
52992;SDS011;38875;52.216;21.040;2022-09-01T05:00:24;7.10;;;1.40;;
52992;SDS011;38875;52.216;21.040;2022-09-01T05:02:55;4.82;;;1.58;;
52992;SDS011;38875;52.216;21.040;2022-09-01T05:05:36;4.30;;;1.30;;
52992;SDS011;38875;52.216;21.040;2022-09-01T05:08:05;10.45;;;1.65;;
52992;SDS011;38875;52.216;21.040;2022-09-01T05:10:32;7.13;;;1.60;;
52992;SDS011;38875;52.216;21.040;2022-09-01T05:13:00;6.35;;;1.17;;
52992;SDS011;38875;52.216;21.040;2022-09-01T05:15:40;4.88;;;1.75;;
52992;SDS011;38875;52.216;21.040;2022-09-01T05:18:17;7.57;;;1.60;;
52992;SDS011;38875;52.216;21.040;2022-09-01T05:20:53;4.28;;;1.25;;
52992;SDS011;38875;52.216;21.040;2022-09-01T05:23:19;4.00;;;1.30;;
52992;SDS011;38875;52.216;21.040;2022-09-01T05:25:46;6.38;;;1.52;;
52992;SDS011;38875;52.216;21.040;2022-09-01T05:28:15;5.32;;;1.60;;
52992;SDS011;38875;52.216;21.040;2022-09-01T05:30:43;8.15;;;1.88;;
52992;SDS011;38875;52.216;21.040;2022-09-01T05:33:11;4.40;;;1.55;;
52992;SDS011;38875;52.216;21.040;2022-09-01T05:35:41;7.53;;;1.90;;
52992;SDS011;38875;52.216;21.040;2022-09-01T05:38:16;9.20;;;1.58;;
52992;SDS011;38875;52.216;21.040;2022-09-01T05:40:42;7.15;;;1.58;;
52992;SDS011;38875;52.216;21.040;2022-09-01T05:43:09;7.07;;;1.67;;
52992;SDS011;38875;52.216;21.040;2022-09-01T05:45:41;5.25;;;1.65;;
52992;SDS011;38875;52.216;21.040;2022-09-01T05:48:10;18.35;;;2.30;;
52992;SDS011;38875;52.216;21.040;2022-09-01T05:50:39;10.07;;;1.48;;
52992;SDS011;38875;52.216;21.040;2022-09-01T05:53:09;10.27;;;1.60;;
52992;SDS011;38875;52.216;21.040;2022-09-01T05:55:42;26.85;;;2.53;;
52992;SDS011;38875;52.216;21.040;2022-09-01T05:58:10;21.65;;;2.10;;
52992;SDS011;38875;52.216;21.040;2022-09-01T06:00:41;19.17;;;1.90;;
52992;SDS011;38875;52.216;21.040;2022-09-01T06:03:09;7.13;;;1.27;;
52992;SDS011;38875;52.216;21.040;2022-09-01T06:05:35;4.25;;;1.05;;
52992;SDS011;38875;52.216;21.040;2022-09-01T06:08:05;11.35;;;1.58;;
52992;SDS011;38875;52.216;21.040;2022-09-01T06:10:35;7.95;;;1.52;;
52992;SDS011;38875;52.216;21.040;2022-09-01T06:13:07;8.50;;;1.60;;
52992;SDS011;38875;52.216;21.040;2022-09-01T06:15:34;13.50;;;1.73;;
52992;SDS011;38875;52.216;21.040;2022-09-01T06:18:07;7.35;;;1.45;;
52992;SDS011;38875;52.216;21.040;2022-09-01T06:20:38;10.65;;;2.38;;
52992;SDS011;38875;52.216;21.040;2022-09-01T06:23:06;10.77;;;1.50;;
52992;SDS011;38875;52.216;21.040;2022-09-01T06:25:31;10.52;;;1.30;;
52992;SDS011;38875;52.216;21.040;2022-09-01T06:28:02;11.32;;;1.30;;
52992;SDS011;38875;52.216;21.040;2022-09-01T06:30:28;18.15;;;1.75;;
52992;SDS011;38875;52.216;21.040;2022-09-01T06:32:54;11.90;;;1.40;;
52992;SDS011;38875;52.216;21.040;2022-09-01T06:35:21;16.88;;;2.38;;
52992;SDS011;38875;52.216;21.040;2022-09-01T06:37:54;22.35;;;2.33;;
52992;SDS011;38875;52.216;21.040;2022-09-01T06:40:22;12.43;;;1.90;;
52992;SDS011;38875;52.216;21.040;2022-09-01T06:42:50;7.22;;;1.10;;
52992;SDS011;38875;52.216;21.040;2022-09-01T06:45:18;7.88;;;1.15;;
52992;SDS011;38875;52.216;21.040;2022-09-01T06:47:47;37.95;;;2.55;;
52992;SDS011;38875;52.216;21.040;2022-09-01T06:50:16;10.52;;;1.30;;
52992;SDS011;38875;52.216;21.040;2022-09-01T06:52:46;11.63;;;1.27;;
52992;SDS011;38875;52.216;21.040;2022-09-01T06:55:14;43.42;;;2.90;;
52992;SDS011;38875;52.216;21.040;2022-09-01T06:57:41;6.13;;;1.00;;
52992;SDS011;38875;52.216;21.040;2022-09-01T07:00:11;5.75;;;1.02;;
52992;SDS011;38875;52.216;21.040;2022-09-01T07:02:43;6.70;;;0.95;;
52992;SDS011;38875;52.216;21.040;2022-09-01T07:05:09;18.23;;;1.38;;
52992;SDS011;38875;52.216;21.040;2022-09-01T07:07:36;9.73;;;1.15;;
52992;SDS011;38875;52.216;21.040;2022-09-01T07:10:03;5.70;;;0.75;;
52992;SDS011;38875;52.216;21.040;2022-09-01T07:12:29;4.93;;;0.90;;
52992;SDS011;38875;52.216;21.040;2022-09-01T07:14:56;5.22;;;1.02;;
52992;SDS011;38875;52.216;21.040;2022-09-01T07:17:23;8.05;;;1.00;;
52992;SDS011;38875;52.216;21.040;2022-09-01T07:19:50;4.60;;;0.90;;
52992;SDS011;38875;52.216;21.040;2022-09-01T07:22:16;3.83;;;0.70;;
52992;SDS011;38875;52.216;21.040;2022-09-01T07:24:42;2.85;;;0.77;;
52992;SDS011;38875;52.216;21.040;2022-09-01T07:27:10;2.97;;;0.60;;
52992;SDS011;38875;52.216;21.040;2022-09-01T07:29:36;4.00;;;0.90;;
52992;SDS011;38875;52.216;21.040;2022-09-01T07:32:03;7.07;;;0.73;;
52992;SDS011;38875;52.216;21.040;2022-09-01T07:34:29;11.23;;;1.30;;
52992;SDS011;38875;52.216;21.040;2022-09-01T07:36:56;9.07;;;0.90;;
52992;SDS011;38875;52.216;21.040;2022-09-01T07:39:24;2.33;;;0.60;;
52992;SDS011;38875;52.216;21.040;2022-09-01T07:41:50;2.25;;;0.60;;
52992;SDS011;38875;52.216;21.040;2022-09-01T07:44:16;5.47;;;0.63;;
52992;SDS011;38875;52.216;21.040;2022-09-01T07:46:41;2.53;;;0.82;;
52992;SDS011;38875;52.216;21.040;2022-09-01T07:49:07;2.10;;;0.63;;
52992;SDS011;38875;52.216;21.040;2022-09-01T07:51:33;2.72;;;0.60;;
52992;SDS011;38875;52.216;21.040;2022-09-01T07:54:01;4.20;;;0.93;;
52992;SDS011;38875;52.216;21.040;2022-09-01T07:56:27;1.55;;;0.40;;
52992;SDS011;38875;52.216;21.040;2022-09-01T07:58:54;2.78;;;0.70;;
52992;SDS011;38875;52.216;21.040;2022-09-01T08:01:23;4.18;;;0.70;;
52992;SDS011;38875;52.216;21.040;2022-09-01T08:03:52;7.13;;;0.98;;
52992;SDS011;38875;52.216;21.040;2022-09-01T08:06:20;5.15;;;1.10;;
52992;SDS011;38875;52.216;21.040;2022-09-01T08:08:49;2.33;;;0.70;;
52992;SDS011;38875;52.216;21.040;2022-09-01T08:11:19;2.20;;;0.60;;
52992;SDS011;38875;52.216;21.040;2022-09-01T08:13:49;3.20;;;0.87;;
52992;SDS011;38875;52.216;21.040;2022-09-01T08:16:16;2.35;;;0.63;;
52992;SDS011;38875;52.216;21.040;2022-09-01T08:18:41;6.63;;;1.27;;
52992;SDS011;38875;52.216;21.040;2022-09-01T08:21:10;5.55;;;0.77;;
52992;SDS011;38875;52.216;21.040;2022-09-01T08:23:37;3.83;;;0.45;;
52992;SDS011;38875;52.216;21.040;2022-09-01T08:26:10;3.08;;;0.60;;
52992;SDS011;38875;52.216;21.040;2022-09-01T08:28:38;4.03;;;0.75;;
52992;SDS011;38875;52.216;21.040;2022-09-01T08:31:11;3.63;;;0.60;;
52992;SDS011;38875;52.216;21.040;2022-09-01T08:33:39;4.22;;;0.68;;
52992;SDS011;38875;52.216;21.040;2022-09-01T08:36:07;3.60;;;0.60;;
52992;SDS011;38875;52.216;21.040;2022-09-01T08:38:34;3.15;;;0.60;;
52992;SDS011;38875;52.216;21.040;2022-09-01T08:41:00;1.55;;;0.60;;
52992;SDS011;38875;52.216;21.040;2022-09-01T08:43:41;2.92;;;0.40;;
52992;SDS011;38875;52.216;21.040;2022-09-01T08:46:16;4.15;;;0.47;;
52992;SDS011;38875;52.216;21.040;2022-09-01T08:48:50;2.65;;;0.50;;
52992;SDS011;38875;52.216;21.040;2022-09-01T08:51:22;1.73;;;0.40;;
52992;SDS011;38875;52.216;21.040;2022-09-01T08:54:05;3.03;;;0.60;;
52992;SDS011;38875;52.216;21.040;2022-09-01T08:56:40;1.92;;;0.50;;
52992;SDS011;38875;52.216;21.040;2022-09-01T08:59:06;5.28;;;0.60;;
52992;SDS011;38875;52.216;21.040;2022-09-01T09:09:49;3.17;;;0.32;;
52992;SDS011;38875;52.216;21.040;2022-09-01T09:17:55;1.92;;;0.50;;
52992;SDS011;38875;52.216;21.040;2022-09-01T09:20:31;1.70;;;0.60;;
52992;SDS011;38875;52.216;21.040;2022-09-01T09:22:57;0.65;;;0.38;;
52992;SDS011;38875;52.216;21.040;2022-09-01T09:25:27;2.22;;;0.43;;
52992;SDS011;38875;52.216;21.040;2022-09-01T09:27:55;3.40;;;0.50;;
52992;SDS011;38875;52.216;21.040;2022-09-01T09:30:22;2.60;;;1.00;;
52992;SDS011;38875;52.216;21.040;2022-09-01T09:32:54;2.08;;;0.50;;
52992;SDS011;38875;52.216;21.040;2022-09-01T09:35:30;3.97;;;0.47;;
52992;SDS011;38875;52.216;21.040;2022-09-01T09:48:45;1.98;;;0.30;;
52992;SDS011;38875;52.216;21.040;2022-09-01T09:51:29;1.83;;;0.30;;
52992;SDS011;38875;52.216;21.040;2022-09-01T09:54:08;3.90;;;0.38;;
52992;SDS011;38875;52.216;21.040;2022-09-01T09:56:38;1.55;;;0.30;;
52992;SDS011;38875;52.216;21.040;2022-09-01T09:59:15;2.83;;;0.40;;
52992;SDS011;38875;52.216;21.040;2022-09-01T10:01:45;0.50;;;0.32;;
52992;SDS011;38875;52.216;21.040;2022-09-01T10:04:14;4.80;;;0.60;;
52992;SDS011;38875;52.216;21.040;2022-09-01T10:06:57;2.60;;;0.30;;
52992;SDS011;38875;52.216;21.040;2022-09-01T10:11:50;1.52;;;0.47;;
52992;SDS011;38875;52.216;21.040;2022-09-01T10:14:19;1.85;;;0.40;;
52992;SDS011;38875;52.216;21.040;2022-09-01T10:16:51;4.30;;;0.50;;
52992;SDS011;38875;52.216;21.040;2022-09-01T10:19:21;0.85;;;0.30;;
52992;SDS011;38875;52.216;21.040;2022-09-01T10:21:48;2.38;;;0.47;;
52992;SDS011;38875;52.216;21.040;2022-09-01T10:24:34;1.63;;;0.40;;
52992;SDS011;38875;52.216;21.040;2022-09-01T10:27:04;1.42;;;0.55;;
52992;SDS011;38875;52.216;21.040;2022-09-01T10:32:25;1.85;;;0.43;;
52992;SDS011;38875;52.216;21.040;2022-09-01T10:34:56;1.80;;;0.38;;
52992;SDS011;38875;52.216;21.040;2022-09-01T10:37:22;0.75;;;0.30;;
52992;SDS011;38875;52.216;21.040;2022-09-01T10:42:45;2.35;;;0.30;;
52992;SDS011;38875;52.216;21.040;2022-09-01T10:45:19;1.88;;;0.50;;
52992;SDS011;38875;52.216;21.040;2022-09-01T10:48:40;0.52;;;0.32;;
52992;SDS011;38875;52.216;21.040;2022-09-01T11:04:05;1.42;;;0.25;;
52992;SDS011;38875;52.216;21.040;2022-09-01T11:07:04;2.30;;;0.35;;
52992;SDS011;38875;52.216;21.040;2022-09-01T11:14:54;1.65;;;0.55;;
52992;SDS011;38875;52.216;21.040;2022-09-01T11:17:23;1.40;;;0.30;;
52992;SDS011;38875;52.216;21.040;2022-09-01T11:23:00;2.08;;;0.65;;
52992;SDS011;38875;52.216;21.040;2022-09-01T11:27:59;2.67;;;0.35;;
52992;SDS011;38875;52.216;21.040;2022-09-01T11:30:46;4.15;;;0.90;;
52992;SDS011;38875;52.216;21.040;2022-09-01T11:41:40;1.25;;;0.40;;
52992;SDS011;38875;52.216;21.040;2022-09-01T11:44:24;7.75;;;0.50;;
52992;SDS011;38875;52.216;21.040;2022-09-01T11:46:50;2.63;;;0.77;;
52992;SDS011;38875;52.216;21.040;2022-09-01T11:49:27;1.77;;;0.60;;
52992;SDS011;38875;52.216;21.040;2022-09-01T11:52:02;3.22;;;0.35;;
52992;SDS011;38875;52.216;21.040;2022-09-01T11:54:35;3.53;;;0.40;;
52992;SDS011;38875;52.216;21.040;2022-09-01T12:00:07;2.00;;;0.50;;
52992;SDS011;38875;52.216;21.040;2022-09-01T12:02:40;2.30;;;0.60;;
52992;SDS011;38875;52.216;21.040;2022-09-01T12:05:23;2.67;;;0.65;;
52992;SDS011;38875;52.216;21.040;2022-09-01T12:07:50;2.65;;;0.50;;
52992;SDS011;38875;52.216;21.040;2022-09-01T12:15:35;1.23;;;0.57;;
52992;SDS011;38875;52.216;21.040;2022-09-01T12:20:35;6.60;;;0.60;;
52992;SDS011;38875;52.216;21.040;2022-09-01T12:25:49;12.43;;;0.80;;
52992;SDS011;38875;52.216;21.040;2022-09-01T12:28:15;6.05;;;0.85;;
52992;SDS011;38875;52.216;21.040;2022-09-01T12:30:41;3.45;;;0.40;;
52992;SDS011;38875;52.216;21.040;2022-09-01T12:33:09;5.15;;;0.85;;
52992;SDS011;38875;52.216;21.040;2022-09-01T12:35:38;4.38;;;1.00;;
52992;SDS011;38875;52.216;21.040;2022-09-01T12:40:43;1.90;;;0.45;;
52992;SDS011;38875;52.216;21.040;2022-09-01T12:46:38;2.55;;;0.40;;
52992;SDS011;38875;52.216;21.040;2022-09-01T12:49:23;5.70;;;0.98;;
52992;SDS011;38875;52.216;21.040;2022-09-01T12:54:54;0.85;;;0.40;;
52992;SDS011;38875;52.216;21.040;2022-09-01T12:57:37;2.38;;;0.60;;
52992;SDS011;38875;52.216;21.040;2022-09-01T13:07:55;0.95;;;0.52;;
52992;SDS011;38875;52.216;21.040;2022-09-01T13:10:24;3.22;;;0.90;;
52992;SDS011;38875;52.216;21.040;2022-09-01T13:12:52;7.28;;;0.68;;
52992;SDS011;38875;52.216;21.040;2022-09-01T13:15:19;4.05;;;0.60;;
52992;SDS011;38875;52.216;21.040;2022-09-01T13:17:45;3.10;;;0.50;;
52992;SDS011;38875;52.216;21.040;2022-09-01T13:20:12;2.17;;;0.32;;
52992;SDS011;38875;52.216;21.040;2022-09-01T13:22:39;4.90;;;1.02;;
52992;SDS011;38875;52.216;21.040;2022-09-01T13:25:06;2.40;;;0.47;;
52992;SDS011;38875;52.216;21.040;2022-09-01T13:27:35;1.08;;;0.40;;
52992;SDS011;38875;52.216;21.040;2022-09-01T13:30:03;3.65;;;0.55;;
52992;SDS011;38875;52.216;21.040;2022-09-01T13:32:31;0.63;;;0.20;;
52992;SDS011;38875;52.216;21.040;2022-09-01T13:34:56;4.45;;;0.70;;
52992;SDS011;38875;52.216;21.040;2022-09-01T13:37:22;5.82;;;0.80;;
52992;SDS011;38875;52.216;21.040;2022-09-01T13:39:48;5.72;;;0.50;;
52992;SDS011;38875;52.216;21.040;2022-09-01T13:42:15;3.80;;;0.70;;
52992;SDS011;38875;52.216;21.040;2022-09-01T13:44:41;2.33;;;0.60;;
52992;SDS011;38875;52.216;21.040;2022-09-01T13:47:07;1.58;;;0.50;;
52992;SDS011;38875;52.216;21.040;2022-09-01T13:49:33;1.65;;;0.50;;
52992;SDS011;38875;52.216;21.040;2022-09-01T13:51:59;1.52;;;0.47;;
52992;SDS011;38875;52.216;21.040;2022-09-01T13:54:24;2.45;;;0.63;;
52992;SDS011;38875;52.216;21.040;2022-09-01T13:56:50;0.47;;;0.30;;
52992;SDS011;38875;52.216;21.040;2022-09-01T13:59:16;5.28;;;0.50;;
52992;SDS011;38875;52.216;21.040;2022-09-01T14:01:42;2.05;;;0.40;;
52992;SDS011;38875;52.216;21.040;2022-09-01T14:04:08;0.65;;;0.35;;
52992;SDS011;38875;52.216;21.040;2022-09-01T14:06:41;2.45;;;0.30;;
52992;SDS011;38875;52.216;21.040;2022-09-01T14:09:11;1.80;;;0.40;;
52992;SDS011;38875;52.216;21.040;2022-09-01T14:11:39;2.17;;;0.35;;
52992;SDS011;38875;52.216;21.040;2022-09-01T14:14:05;2.40;;;0.50;;
52992;SDS011;38875;52.216;21.040;2022-09-01T14:16:31;1.73;;;0.50;;
52992;SDS011;38875;52.216;21.040;2022-09-01T14:18:58;1.27;;;0.50;;
52992;SDS011;38875;52.216;21.040;2022-09-01T14:21:24;1.30;;;0.47;;
52992;SDS011;38875;52.216;21.040;2022-09-01T14:23:51;2.90;;;0.80;;
52992;SDS011;38875;52.216;21.040;2022-09-01T14:26:17;1.70;;;0.50;;
52992;SDS011;38875;52.216;21.040;2022-09-01T14:28:43;3.28;;;0.40;;
52992;SDS011;38875;52.216;21.040;2022-09-01T14:31:12;2.08;;;0.63;;
52992;SDS011;38875;52.216;21.040;2022-09-01T14:33:40;1.25;;;0.30;;
52992;SDS011;38875;52.216;21.040;2022-09-01T14:36:06;1.58;;;0.63;;
52992;SDS011;38875;52.216;21.040;2022-09-01T14:38:33;2.17;;;0.32;;
52992;SDS011;38875;52.216;21.040;2022-09-01T14:41:00;1.70;;;0.57;;
52992;SDS011;38875;52.216;21.040;2022-09-01T14:43:26;1.42;;;0.50;;
52992;SDS011;38875;52.216;21.040;2022-09-01T14:46:05;1.48;;;0.52;;
52992;SDS011;38875;52.216;21.040;2022-09-01T14:48:35;2.78;;;0.45;;
52992;SDS011;38875;52.216;21.040;2022-09-01T14:51:01;1.75;;;0.45;;
52992;SDS011;38875;52.216;21.040;2022-09-01T14:53:27;1.65;;;0.47;;
52992;SDS011;38875;52.216;21.040;2022-09-01T14:55:55;2.20;;;0.50;;
52992;SDS011;38875;52.216;21.040;2022-09-01T14:58:21;2.50;;;0.40;;
52992;SDS011;38875;52.216;21.040;2022-09-01T15:00:47;0.70;;;0.40;;
52992;SDS011;38875;52.216;21.040;2022-09-01T15:03:14;3.97;;;0.57;;
52992;SDS011;38875;52.216;21.040;2022-09-01T15:05:39;0.98;;;0.50;;
52992;SDS011;38875;52.216;21.040;2022-09-01T15:08:05;1.95;;;0.52;;
52992;SDS011;38875;52.216;21.040;2022-09-01T15:10:32;3.20;;;0.65;;
52992;SDS011;38875;52.216;21.040;2022-09-01T15:12:59;2.28;;;0.75;;
52992;SDS011;38875;52.216;21.040;2022-09-01T15:15:25;3.22;;;0.65;;
52992;SDS011;38875;52.216;21.040;2022-09-01T15:17:53;1.98;;;0.30;;
52992;SDS011;38875;52.216;21.040;2022-09-01T15:20:19;1.23;;;0.40;;
52992;SDS011;38875;52.216;21.040;2022-09-01T15:23:04;5.60;;;0.45;;
52992;SDS011;38875;52.216;21.040;2022-09-01T15:25:30;1.33;;;0.77;;
52992;SDS011;38875;52.216;21.040;2022-09-01T15:27:56;2.90;;;0.52;;
52992;SDS011;38875;52.216;21.040;2022-09-01T15:30:22;2.30;;;0.60;;
52992;SDS011;38875;52.216;21.040;2022-09-01T15:32:49;2.17;;;0.57;;
52992;SDS011;38875;52.216;21.040;2022-09-01T15:35:17;1.70;;;0.47;;
52992;SDS011;38875;52.216;21.040;2022-09-01T15:37:47;1.10;;;0.63;;
52992;SDS011;38875;52.216;21.040;2022-09-01T15:40:14;0.82;;;0.38;;
52992;SDS011;38875;52.216;21.040;2022-09-01T15:42:40;2.03;;;0.50;;
52992;SDS011;38875;52.216;21.040;2022-09-01T15:45:12;1.33;;;0.43;;
52992;SDS011;38875;52.216;21.040;2022-09-01T15:50:07;2.13;;;0.30;;
52992;SDS011;38875;52.216;21.040;2022-09-01T15:53:17;1.08;;;0.40;;
52992;SDS011;38875;52.216;21.040;2022-09-01T15:55:41;2.88;;;0.40;;
52992;SDS011;38875;52.216;21.040;2022-09-01T15:58:10;3.90;;;0.50;;
52992;SDS011;38875;52.216;21.040;2022-09-01T16:00:37;1.20;;;0.45;;
52992;SDS011;38875;52.216;21.040;2022-09-01T16:03:04;1.98;;;0.60;;
52992;SDS011;38875;52.216;21.040;2022-09-01T16:05:31;2.65;;;0.70;;
52992;SDS011;38875;52.216;21.040;2022-09-01T16:07:58;1.88;;;0.60;;
52992;SDS011;38875;52.216;21.040;2022-09-01T16:10:26;3.03;;;0.52;;
52992;SDS011;38875;52.216;21.040;2022-09-01T16:12:53;1.38;;;0.63;;
52992;SDS011;38875;52.216;21.040;2022-09-01T16:15:20;4.97;;;0.90;;
52992;SDS011;38875;52.216;21.040;2022-09-01T16:20:33;3.17;;;0.60;;
52992;SDS011;38875;52.216;21.040;2022-09-01T16:23:12;3.45;;;0.57;;
52992;SDS011;38875;52.216;21.040;2022-09-01T16:25:43;4.03;;;0.30;;
52992;SDS011;38875;52.216;21.040;2022-09-01T16:28:19;4.70;;;0.73;;
52992;SDS011;38875;52.216;21.040;2022-09-01T16:30:50;1.60;;;0.50;;
52992;SDS011;38875;52.216;21.040;2022-09-01T16:33:18;3.70;;;0.63;;
52992;SDS011;38875;52.216;21.040;2022-09-01T16:36:24;1.20;;;0.40;;